Kimberlin Heights, Tennessee
Current Conditions -  °F | °C
As of 8:53 PM on Monday 22 Dec 2014 (Local Time) from KTYS Reporting Station
Broken Clouds Broken Clouds  
Wind Chill: 46°   Ceiling: 10000
Heat Index: 48°   Visibility: 10mi
Dew Point: 45°   Wind: 5mph
Humidity: 89%   Direction: 240°WSW
Pressure: 29.82"   Gusts: NA
Location:  35.9105°N, 83.8544°W
Report Text: KTYS 230153Z 24004KT 10SM FEW065 SCT085 BKN100 09/07 A2982 RMK AO2 SLP099 T00890072
Loading
Personal Weather Stations






























Interactive Weather Map New forecast layout! Learn more

10-Day Weather Forecast

Advertisements
Track Severe Weather on mobile